sensor_id;sensor_type;location;lat;lon;timestamp;temperature;humidity
9977;DHT22;5029;47.378;11.776;2023-03-01T00:01:42;-1.50;99.90
9977;DHT22;5029;47.378;11.776;2023-03-01T00:06:45;-1.60;99.90
9977;DHT22;5029;47.378;11.776;2023-03-01T00:11:50;-1.60;99.90
9977;DHT22;5029;47.378;11.776;2023-03-01T00:16:54;-1.50;99.90
9977;DHT22;5029;47.378;11.776;2023-03-01T00:21:57;-1.50;99.90
9977;DHT22;5029;47.378;11.776;2023-03-01T00:27:02;-1.50;99.90
9977;DHT22;5029;47.378;11.776;2023-03-01T00:32:05;-1.50;99.90
9977;DHT22;5029;47.378;11.776;2023-03-01T00:37:09;-1.70;99.90
9977;DHT22;5029;47.378;11.776;2023-03-01T00:42:14;-1.60;99.90
9977;DHT22;5029;47.378;11.776;2023-03-01T00:47:17;-1.70;99.90
9977;DHT22;5029;47.378;11.776;2023-03-01T00:52:20;-1.50;99.90
9977;DHT22;5029;47.378;11.776;2023-03-01T00:57:25;-1.60;99.90
9977;DHT22;5029;47.378;11.776;2023-03-01T01:02:28;-1.60;99.90
9977;DHT22;5029;47.378;11.776;2023-03-01T01:07:32;-1.60;99.90
9977;DHT22;5029;47.378;11.776;2023-03-01T01:12:37;-1.40;99.90
9977;DHT22;5029;47.378;11.776;2023-03-01T01:17:40;-1.50;99.90
9977;DHT22;5029;47.378;11.776;2023-03-01T01:22:44;-1.60;99.90
9977;DHT22;5029;47.378;11.776;2023-03-01T01:27:48;-1.50;99.90
9977;DHT22;5029;47.378;11.776;2023-03-01T01:32:52;-1.60;99.90
9977;DHT22;5029;47.378;11.776;2023-03-01T01:37:55;-1.50;99.90
9977;DHT22;5029;47.378;11.776;2023-03-01T01:43:00;-1.50;99.90
9977;DHT22;5029;47.378;11.776;2023-03-01T01:48:06;-1.60;99.90
9977;DHT22;5029;47.378;11.776;2023-03-01T01:53:15;-1.50;99.90
9977;DHT22;5029;47.378;11.776;2023-03-01T01:58:22;-1.50;99.90
9977;DHT22;5029;47.378;11.776;2023-03-01T02:03:31;-1.60;99.90
9977;DHT22;5029;47.378;11.776;2023-03-01T02:08:41;-1.50;99.90
9977;DHT22;5029;47.378;11.776;2023-03-01T02:13:47;-1.50;99.90
9977;DHT22;5029;47.378;11.776;2023-03-01T02:18:51;-1.40;99.90
9977;DHT22;5029;47.378;11.776;2023-03-01T02:23:55;-1.40;99.90
9977;DHT22;5029;47.378;11.776;2023-03-01T02:29:00;-1.60;99.90
9977;DHT22;5029;47.378;11.776;2023-03-01T02:34:04;-1.50;99.90
9977;DHT22;5029;47.378;11.776;2023-03-01T02:39:12;-1.40;99.90
9977;DHT22;5029;47.378;11.776;2023-03-01T02:44:21;-1.40;99.90
9977;DHT22;5029;47.378;11.776;2023-03-01T02:49:26;-1.40;99.90
9977;DHT22;5029;47.378;11.776;2023-03-01T02:54:33;-1.50;99.90
9977;DHT22;5029;47.378;11.776;2023-03-01T02:59:41;-1.60;99.90
9977;DHT22;5029;47.378;11.776;2023-03-01T03:04:45;-1.70;99.90
9977;DHT22;5029;47.378;11.776;2023-03-01T03:09:49;-1.60;99.90
9977;DHT22;5029;47.378;11.776;2023-03-01T03:14:53;-1.50;99.90
9977;DHT22;5029;47.378;11.776;2023-03-01T03:19:57;-1.40;99.90
9977;DHT22;5029;47.378;11.776;2023-03-01T03:25:00;-1.50;99.90
9977;DHT22;5029;47.378;11.776;2023-03-01T03:30:07;-1.60;99.90
9977;DHT22;5029;47.378;11.776;2023-03-01T03:35:11;-1.80;99.90
9977;DHT22;5029;47.378;11.776;2023-03-01T03:40:14;-1.70;99.90
9977;DHT22;5029;47.378;11.776;2023-03-01T03:45:19;-1.80;99.90
9977;DHT22;5029;47.378;11.776;2023-03-01T03:50:22;-1.80;99.90
9977;DHT22;5029;47.378;11.776;2023-03-01T03:55:26;-1.70;99.90
9977;DHT22;5029;47.378;11.776;2023-03-01T04:00:34;-1.60;99.90
9977;DHT22;5029;47.378;11.776;2023-03-01T04:05:39;-1.60;99.90
9977;DHT22;5029;47.378;11.776;2023-03-01T04:10:44;-1.80;99.90
9977;DHT22;5029;47.378;11.776;2023-03-01T04:15:50;-1.80;99.90
9977;DHT22;5029;47.378;11.776;2023-03-01T04:20:54;-1.80;99.90
9977;DHT22;5029;47.378;11.776;2023-03-01T04:25:58;-1.60;99.90
9977;DHT22;5029;47.378;11.776;2023-03-01T04:31:05;-1.50;99.90
9977;DHT22;5029;47.378;11.776;2023-03-01T04:36:16;-1.50;99.90
9977;DHT22;5029;47.378;11.776;2023-03-01T04:41:22;-1.60;99.90
9977;DHT22;5029;47.378;11.776;2023-03-01T04:46:27;-1.60;99.90
9977;DHT22;5029;47.378;11.776;2023-03-01T04:51:31;-1.70;99.90
9977;DHT22;5029;47.378;11.776;2023-03-01T04:56:35;-1.60;99.90
9977;DHT22;5029;47.378;11.776;2023-03-01T05:01:39;-1.70;99.90
9977;DHT22;5029;47.378;11.776;2023-03-01T05:06:44;-1.80;99.90
9977;DHT22;5029;47.378;11.776;2023-03-01T05:11:48;-1.90;99.90
9977;DHT22;5029;47.378;11.776;2023-03-01T05:16:53;-1.70;99.90
9977;DHT22;5029;47.378;11.776;2023-03-01T05:21:56;-1.70;99.90
9977;DHT22;5029;47.378;11.776;2023-03-01T05:27:06;-1.70;99.90
9977;DHT22;5029;47.378;11.776;2023-03-01T05:32:11;-1.70;99.90
9977;DHT22;5029;47.378;11.776;2023-03-01T05:37:17;-1.90;99.90
9977;DHT22;5029;47.378;11.776;2023-03-01T05:42:21;-1.80;99.90
9977;DHT22;5029;47.378;11.776;2023-03-01T05:47:26;-1.80;99.90
9977;DHT22;5029;47.378;11.776;2023-03-01T05:52:29;-1.70;99.90
9977;DHT22;5029;47.378;11.776;2023-03-01T05:57:32;-1.70;99.90
9977;DHT22;5029;47.378;11.776;2023-03-01T06:02:37;-1.80;99.90
9977;DHT22;5029;47.378;11.776;2023-03-01T06:07:40;-1.80;99.90
9977;DHT22;5029;47.378;11.776;2023-03-01T06:12:44;-1.90;99.90
9977;DHT22;5029;47.378;11.776;2023-03-01T06:17:49;-1.80;99.90
9977;DHT22;5029;47.378;11.776;2023-03-01T06:22:52;-1.90;99.90
9977;DHT22;5029;47.378;11.776;2023-03-01T06:27:56;-2.00;99.90
9977;DHT22;5029;47.378;11.776;2023-03-01T06:33:01;-2.10;99.90
9977;DHT22;5029;47.378;11.776;2023-03-01T06:38:06;-1.80;99.90
9977;DHT22;5029;47.378;11.776;2023-03-01T06:43:09;-2.00;99.90
9977;DHT22;5029;47.378;11.776;2023-03-01T06:48:14;-2.00;99.90
9977;DHT22;5029;47.378;11.776;2023-03-01T06:53:17;-2.00;99.90
9977;DHT22;5029;47.378;11.776;2023-03-01T06:58:20;-1.80;99.90
9977;DHT22;5029;47.378;11.776;2023-03-01T07:03:25;-1.70;99.90
9977;DHT22;5029;47.378;11.776;2023-03-01T07:08:28;-1.80;99.90
9977;DHT22;5029;47.378;11.776;2023-03-01T07:13:32;-1.90;99.90
9977;DHT22;5029;47.378;11.776;2023-03-01T07:18:36;-2.00;99.90
9977;DHT22;5029;47.378;11.776;2023-03-01T07:23:40;-2.00;99.90
9977;DHT22;5029;47.378;11.776;2023-03-01T07:28:43;-1.90;99.90
9977;DHT22;5029;47.378;11.776;2023-03-01T07:33:48;-1.90;99.90
9977;DHT22;5029;47.378;11.776;2023-03-01T07:38:51;-1.60;99.90
9977;DHT22;5029;47.378;11.776;2023-03-01T07:43:55;-1.60;99.90
9977;DHT22;5029;47.378;11.776;2023-03-01T07:48:59;-1.50;99.90
9977;DHT22;5029;47.378;11.776;2023-03-01T07:54:03;-1.60;99.90
9977;DHT22;5029;47.378;11.776;2023-03-01T07:59:10;-1.60;99.90
9977;DHT22;5029;47.378;11.776;2023-03-01T08:04:14;-1.00;99.90
9977;DHT22;5029;47.378;11.776;2023-03-01T08:09:18;-0.60;99.90
9977;DHT22;5029;47.378;11.776;2023-03-01T08:14:21;-0.20;99.90
9977;DHT22;5029;47.378;11.776;2023-03-01T08:19:26;-0.20;99.90
9977;DHT22;5029;47.378;11.776;2023-03-01T08:24:30;-0.10;99.90
9977;DHT22;5029;47.378;11.776;2023-03-01T08:29:33;0.50;99.90
9977;DHT22;5029;47.378;11.776;2023-03-01T08:34:38;0.30;99.90
9977;DHT22;5029;47.378;11.776;2023-03-01T08:39:43;0.20;99.90
9977;DHT22;5029;47.378;11.776;2023-03-01T08:44:46;0.00;99.90
9977;DHT22;5029;47.378;11.776;2023-03-01T08:49:51;0.40;99.90
9977;DHT22;5029;47.378;11.776;2023-03-01T08:54:54;0.30;99.90
9977;DHT22;5029;47.378;11.776;2023-03-01T08:59:58;0.40;99.90
9977;DHT22;5029;47.378;11.776;2023-03-01T09:05:03;0.90;99.90
9977;DHT22;5029;47.378;11.776;2023-03-01T09:10:07;1.20;99.90
9977;DHT22;5029;47.378;11.776;2023-03-01T09:15:10;1.00;99.90
9977;DHT22;5029;47.378;11.776;2023-03-01T09:20:16;1.40;99.90
9977;DHT22;5029;47.378;11.776;2023-03-01T09:25:20;1.90;99.90
9977;DHT22;5029;47.378;11.776;2023-03-01T09:30:23;1.20;99.90
9977;DHT22;5029;47.378;11.776;2023-03-01T09:35:28;1.00;99.90
9977;DHT22;5029;47.378;11.776;2023-03-01T09:40:32;0.50;99.90
9977;DHT22;5029;47.378;11.776;2023-03-01T09:45:38;0.40;99.90
9977;DHT22;5029;47.378;11.776;2023-03-01T09:50:44;0.60;99.90
9977;DHT22;5029;47.378;11.776;2023-03-01T09:55:54;0.10;99.90
9977;DHT22;5029;47.378;11.776;2023-03-01T10:01:04;0.70;99.90
9977;DHT22;5029;47.378;11.776;2023-03-01T10:06:14;0.90;99.90
9977;DHT22;5029;47.378;11.776;2023-03-01T10:11:37;0.60;99.90
9977;DHT22;5029;47.378;11.776;2023-03-01T10:16:48;0.70;99.90
9977;DHT22;5029;47.378;11.776;2023-03-01T10:21:53;1.20;99.90
9977;DHT22;5029;47.378;11.776;2023-03-01T10:26:58;1.40;99.90
9977;DHT22;5029;47.378;11.776;2023-03-01T10:32:04;1.40;99.90
9977;DHT22;5029;47.378;11.776;2023-03-01T10:37:12;1.60;99.90
9977;DHT22;5029;47.378;11.776;2023-03-01T10:42:25;1.50;99.90
9977;DHT22;5029;47.378;11.776;2023-03-01T10:47:29;1.90;99.90
9977;DHT22;5029;47.378;11.776;2023-03-01T10:52:35;2.20;99.90
9977;DHT22;5029;47.378;11.776;2023-03-01T10:57:39;2.00;99.90
9977;DHT22;5029;47.378;11.776;2023-03-01T11:02:45;1.90;99.90
9977;DHT22;5029;47.378;11.776;2023-03-01T11:07:52;2.20;99.90
9977;DHT22;5029;47.378;11.776;2023-03-01T11:13:07;2.30;99.90
9977;DHT22;5029;47.378;11.776;2023-03-01T11:18:22;2.30;99.90
9977;DHT22;5029;47.378;11.776;2023-03-01T11:23:43;2.40;99.90
9977;DHT22;5029;47.378;11.776;2023-03-01T11:28:53;2.70;99.90
9977;DHT22;5029;47.378;11.776;2023-03-01T11:34:02;2.70;99.90
9977;DHT22;5029;47.378;11.776;2023-03-01T11:39:25;3.10;99.90
9977;DHT22;5029;47.378;11.776;2023-03-01T11:44:31;3.00;99.90
9977;DHT22;5029;47.378;11.776;2023-03-01T11:55:41;3.20;99.90
9977;DHT22;5029;47.378;11.776;2023-03-01T12:01:00;3.00;99.90
9977;DHT22;5029;47.378;11.776;2023-03-01T12:06:20;3.10;99.90
9977;DHT22;5029;47.378;11.776;2023-03-01T12:11:37;3.40;99.90
9977;DHT22;5029;47.378;11.776;2023-03-01T12:17:07;3.40;99.90
9977;DHT22;5029;47.378;11.776;2023-03-01T12:22:29;3.70;99.90
9977;DHT22;5029;47.378;11.776;2023-03-01T12:33:15;4.00;99.90
9977;DHT22;5029;47.378;11.776;2023-03-01T12:38:31;3.80;99.90
9977;DHT22;5029;47.378;11.776;2023-03-01T12:43:47;4.00;99.90
9977;DHT22;5029;47.378;11.776;2023-03-01T12:49:02;4.00;99.90
9977;DHT22;5029;47.378;11.776;2023-03-01T12:54:15;4.10;99.90
9977;DHT22;5029;47.378;11.776;2023-03-01T12:59:28;4.30;99.90
9977;DHT22;5029;47.378;11.776;2023-03-01T13:04:40;4.40;99.90
9977;DHT22;5029;47.378;11.776;2023-03-01T13:09:51;4.70;99.90
9977;DHT22;5029;47.378;11.776;2023-03-01T13:14:59;4.80;99.90
9977;DHT22;5029;47.378;11.776;2023-03-01T13:20:02;4.70;99.90
9977;DHT22;5029;47.378;11.776;2023-03-01T13:25:15;4.70;99.90
9977;DHT22;5029;47.378;11.776;2023-03-01T13:30:41;4.90;99.90
9977;DHT22;5029;47.378;11.776;2023-03-01T13:35:45;4.70;99.90
9977;DHT22;5029;47.378;11.776;2023-03-01T13:41:06;4.90;99.90
9977;DHT22;5029;47.378;11.776;2023-03-01T13:46:16;5.20;99.90
9977;DHT22;5029;47.378;11.776;2023-03-01T13:51:23;5.00;99.90
9977;DHT22;5029;47.378;11.776;2023-03-01T13:56:34;5.30;99.90
9977;DHT22;5029;47.378;11.776;2023-03-01T14:01:40;5.80;99.90
9977;DHT22;5029;47.378;11.776;2023-03-01T14:06:44;5.80;99.90
9977;DHT22;5029;47.378;11.776;2023-03-01T14:12:11;5.60;99.90
9977;DHT22;5029;47.378;11.776;2023-03-01T14:22:46;5.60;99.90
9977;DHT22;5029;47.378;11.776;2023-03-01T14:27:58;5.30;99.90
9977;DHT22;5029;47.378;11.776;2023-03-01T14:33:20;5.40;99.90
9977;DHT22;5029;47.378;11.776;2023-03-01T14:38:29;5.40;99.90
9977;DHT22;5029;47.378;11.776;2023-03-01T14:43:33;5.20;99.90
9977;DHT22;5029;47.378;11.776;2023-03-01T14:48:39;5.10;99.90
9977;DHT22;5029;47.378;11.776;2023-03-01T14:53:43;5.20;99.90
9977;DHT22;5029;47.378;11.776;2023-03-01T14:58:53;5.10;99.90
9977;DHT22;5029;47.378;11.776;2023-03-01T15:03:58;5.20;99.90
9977;DHT22;5029;47.378;11.776;2023-03-01T15:09:03;5.10;99.90
9977;DHT22;5029;47.378;11.776;2023-03-01T15:14:25;5.00;99.90
9977;DHT22;5029;47.378;11.776;2023-03-01T15:19:30;4.70;99.90
9977;DHT22;5029;47.378;11.776;2023-03-01T15:24:33;4.70;99.90
9977;DHT22;5029;47.378;11.776;2023-03-01T15:29:38;4.70;99.90
9977;DHT22;5029;47.378;11.776;2023-03-01T15:34:44;4.30;99.90
9977;DHT22;5029;47.378;11.776;2023-03-01T15:39:53;4.00;99.90
9977;DHT22;5029;47.378;11.776;2023-03-01T15:45:08;3.60;99.90
9977;DHT22;5029;47.378;11.776;2023-03-01T15:50:18;3.40;99.90
9977;DHT22;5029;47.378;11.776;2023-03-01T15:55:24;3.10;99.90
9977;DHT22;5029;47.378;11.776;2023-03-01T16:00:30;2.90;99.90
9977;DHT22;5029;47.378;11.776;2023-03-01T16:05:36;2.80;99.90
9977;DHT22;5029;47.378;11.776;2023-03-01T16:10:40;2.60;99.90
9977;DHT22;5029;47.378;11.776;2023-03-01T16:15:46;2.40;99.90
9977;DHT22;5029;47.378;11.776;2023-03-01T16:20:52;2.30;99.90
9977;DHT22;5029;47.378;11.776;2023-03-01T16:25:58;2.10;99.90
9977;DHT22;5029;47.378;11.776;2023-03-01T16:31:03;1.90;99.90
9977;DHT22;5029;47.378;11.776;2023-03-01T16:36:10;1.80;99.90
9977;DHT22;5029;47.378;11.776;2023-03-01T16:41:15;1.60;99.90
9977;DHT22;5029;47.378;11.776;2023-03-01T16:46:22;1.50;99.90
9977;DHT22;5029;47.378;11.776;2023-03-01T16:51:28;1.40;99.90
9977;DHT22;5029;47.378;11.776;2023-03-01T16:56:33;1.30;99.90
9977;DHT22;5029;47.378;11.776;2023-03-01T17:01:39;1.20;99.90
9977;DHT22;5029;47.378;11.776;2023-03-01T17:06:48;1.10;99.90
9977;DHT22;5029;47.378;11.776;2023-03-01T17:11:52;1.00;99.90
9977;DHT22;5029;47.378;11.776;2023-03-01T17:16:57;0.80;99.90
9977;DHT22;5029;47.378;11.776;2023-03-01T17:22:02;0.90;99.90
9977;DHT22;5029;47.378;11.776;2023-03-01T17:27:07;0.70;99.90
9977;DHT22;5029;47.378;11.776;2023-03-01T17:32:11;0.70;99.90
9977;DHT22;5029;47.378;11.776;2023-03-01T17:37:19;0.70;99.90
9977;DHT22;5029;47.378;11.776;2023-03-01T17:42:24;0.60;99.90
9977;DHT22;5029;47.378;11.776;2023-03-01T17:47:29;0.40;99.90
9977;DHT22;5029;47.378;11.776;2023-03-01T17:52:33;0.30;99.90
9977;DHT22;5029;47.378;11.776;2023-03-01T17:57:38;0.40;99.90
9977;DHT22;5029;47.378;11.776;2023-03-01T18:02:42;0.30;99.90
9977;DHT22;5029;47.378;11.776;2023-03-01T18:07:50;0.30;99.90
9977;DHT22;5029;47.378;11.776;2023-03-01T18:12:54;0.30;99.90
9977;DHT22;5029;47.378;11.776;2023-03-01T18:17:59;0.40;99.90
9977;DHT22;5029;47.378;11.776;2023-03-01T18:23:05;0.20;99.90
9977;DHT22;5029;47.378;11.776;2023-03-01T18:28:09;0.10;99.90
9977;DHT22;5029;47.378;11.776;2023-03-01T18:33:14;0.00;99.90
9977;DHT22;5029;47.378;11.776;2023-03-01T18:38:21;-0.10;99.90
9977;DHT22;5029;47.378;11.776;2023-03-01T18:43:24;-0.20;99.90
9977;DHT22;5029;47.378;11.776;2023-03-01T18:48:31;-0.20;99.90
9977;DHT22;5029;47.378;11.776;2023-03-01T18:53:40;-0.30;99.90
9977;DHT22;5029;47.378;11.776;2023-03-01T18:58:45;-0.30;99.90
9977;DHT22;5029;47.378;11.776;2023-03-01T19:03:50;-0.40;99.90
9977;DHT22;5029;47.378;11.776;2023-03-01T19:08:57;-0.50;99.90
9977;DHT22;5029;47.378;11.776;2023-03-01T19:14:03;-0.50;99.90
9977;DHT22;5029;47.378;11.776;2023-03-01T19:19:08;-0.50;99.90
9977;DHT22;5029;47.378;11.776;2023-03-01T19:24:15;-0.70;99.90
9977;DHT22;5029;47.378;11.776;2023-03-01T19:29:19;-0.80;99.90
9977;DHT22;5029;47.378;11.776;2023-03-01T19:34:25;-0.90;99.90
9977;DHT22;5029;47.378;11.776;2023-03-01T19:39:33;-0.90;99.90
9977;DHT22;5029;47.378;11.776;2023-03-01T19:44:38;-0.90;99.90
9977;DHT22;5029;47.378;11.776;2023-03-01T19:49:43;-0.90;99.90
9977;DHT22;5029;47.378;11.776;2023-03-01T19:54:50;-0.80;99.90
9977;DHT22;5029;47.378;11.776;2023-03-01T20:00:14;-0.80;99.90
9977;DHT22;5029;47.378;11.776;2023-03-01T20:05:20;-0.80;99.90
9977;DHT22;5029;47.378;11.776;2023-03-01T20:10:28;-0.80;99.90
9977;DHT22;5029;47.378;11.776;2023-03-01T20:15:33;-0.70;99.90
9977;DHT22;5029;47.378;11.776;2023-03-01T20:20:39;-0.80;99.90
9977;DHT22;5029;47.378;11.776;2023-03-01T20:25:47;-0.80;99.90
9977;DHT22;5029;47.378;11.776;2023-03-01T20:30:52;-0.90;99.90
9977;DHT22;5029;47.378;11.776;2023-03-01T20:35:57;-0.90;99.90
9977;DHT22;5029;47.378;11.776;2023-03-01T20:41:04;-0.90;99.90
9977;DHT22;5029;47.378;11.776;2023-03-01T20:46:11;-0.90;99.90
9977;DHT22;5029;47.378;11.776;2023-03-01T20:51:17;-0.90;99.90
9977;DHT22;5029;47.378;11.776;2023-03-01T20:56:23;-1.00;99.90
9977;DHT22;5029;47.378;11.776;2023-03-01T21:01:30;-1.20;99.90
9977;DHT22;5029;47.378;11.776;2023-03-01T21:06:34;-1.30;99.90
9977;DHT22;5029;47.378;11.776;2023-03-01T21:11:40;-1.30;99.90
9977;DHT22;5029;47.378;11.776;2023-03-01T21:16:44;-1.30;99.90
9977;DHT22;5029;47.378;11.776;2023-03-01T21:21:48;-1.30;99.90
9977;DHT22;5029;47.378;11.776;2023-03-01T21:26:54;-1.60;99.90
9977;DHT22;5029;47.378;11.776;2023-03-01T21:31:58;-1.60;99.90
9977;DHT22;5029;47.378;11.776;2023-03-01T21:37:06;-1.50;99.90
9977;DHT22;5029;47.378;11.776;2023-03-01T21:42:11;-1.40;99.90
9977;DHT22;5029;47.378;11.776;2023-03-01T21:47:14;-1.40;99.90
9977;DHT22;5029;47.378;11.776;2023-03-01T21:52:18;-1.30;99.90
9977;DHT22;5029;47.378;11.776;2023-03-01T21:57:22;-1.30;99.90
9977;DHT22;5029;47.378;11.776;2023-03-01T22:02:26;-1.70;99.90
9977;DHT22;5029;47.378;11.776;2023-03-01T22:07:29;-1.80;99.90
9977;DHT22;5029;47.378;11.776;2023-03-01T22:12:34;-1.80;99.90
9977;DHT22;5029;47.378;11.776;2023-03-01T22:17:37;-1.90;99.90
9977;DHT22;5029;47.378;11.776;2023-03-01T22:22:41;-1.80;99.90
9977;DHT22;5029;47.378;11.776;2023-03-01T22:27:46;-1.90;99.90
9977;DHT22;5029;47.378;11.776;2023-03-01T22:32:49;-2.00;99.90
9977;DHT22;5029;47.378;11.776;2023-03-01T22:37:52;-1.80;99.90
9977;DHT22;5029;47.378;11.776;2023-03-01T22:42:57;-1.90;99.90
9977;DHT22;5029;47.378;11.776;2023-03-01T22:48:00;-1.90;99.90
9977;DHT22;5029;47.378;11.776;2023-03-01T22:53:05;-1.90;99.90
9977;DHT22;5029;47.378;11.776;2023-03-01T22:58:10;-1.90;99.90
9977;DHT22;5029;47.378;11.776;2023-03-01T23:03:14;-1.70;99.90
9977;DHT22;5029;47.378;11.776;2023-03-01T23:08:18;-1.80;99.90
9977;DHT22;5029;47.378;11.776;2023-03-01T23:13:23;-1.90;99.90
9977;DHT22;5029;47.378;11.776;2023-03-01T23:18:26;-2.10;99.90
9977;DHT22;5029;47.378;11.776;2023-03-01T23:23:29;-2.10;99.90
9977;DHT22;5029;47.378;11.776;2023-03-01T23:28:35;-1.90;99.90
9977;DHT22;5029;47.378;11.776;2023-03-01T23:33:42;-2.00;99.90
9977;DHT22;5029;47.378;11.776;2023-03-01T23:38:46;-1.80;99.90
9977;DHT22;5029;47.378;11.776;2023-03-01T23:43:53;-1.70;99.90
9977;DHT22;5029;47.378;11.776;2023-03-01T23:48:57;-1.90;99.90
9977;DHT22;5029;47.378;11.776;2023-03-01T23:54:01;-2.00;99.90
9977;DHT22;5029;47.378;11.776;2023-03-01T23:59:09;-1.90;99.90
